sensor_id;sensor_type;location;lat;lon;timestamp;P1;durP1;ratioP1;P2;durP2;ratioP2
37905;SDS011;23739;51.448;6.674;2024-01-15T00:02:01;48.10;;;24.90;;
37905;SDS011;23739;51.448;6.674;2024-01-15T00:04:28;54.28;;;26.38;;
37905;SDS011;23739;51.448;6.674;2024-01-15T00:06:54;55.85;;;26.02;;
37905;SDS011;23739;51.448;6.674;2024-01-15T00:09:20;50.88;;;25.27;;
37905;SDS011;23739;51.448;6.674;2024-01-15T00:11:46;55.47;;;22.42;;
37905;SDS011;23739;51.448;6.674;2024-01-15T00:14:12;52.85;;;26.42;;
37905;SDS011;23739;51.448;6.674;2024-01-15T00:16:40;48.67;;;23.60;;
37905;SDS011;23739;51.448;6.674;2024-01-15T00:19:06;41.38;;;23.13;;
37905;SDS011;23739;51.448;6.674;2024-01-15T00:21:32;46.13;;;22.58;;
37905;SDS011;23739;51.448;6.674;2024-01-15T00:23:58;44.60;;;21.45;;
37905;SDS011;23739;51.448;6.674;2024-01-15T00:26:25;43.53;;;20.75;;
37905;SDS011;23739;51.448;6.674;2024-01-15T00:28:51;45.80;;;21.98;;
37905;SDS011;23739;51.448;6.674;2024-01-15T00:31:16;43.42;;;20.95;;
37905;SDS011;23739;51.448;6.674;2024-01-15T00:33:43;48.67;;;23.85;;
37905;SDS011;23739;51.448;6.674;2024-01-15T00:36:09;45.85;;;21.10;;
37905;SDS011;23739;51.448;6.674;2024-01-15T00:38:35;38.65;;;19.77;;
37905;SDS011;23739;51.448;6.674;2024-01-15T00:41:01;45.10;;;22.05;;
37905;SDS011;23739;51.448;6.674;2024-01-15T00:43:28;40.50;;;19.02;;
37905;SDS011;23739;51.448;6.674;2024-01-15T00:45:54;45.83;;;21.33;;
37905;SDS011;23739;51.448;6.674;2024-01-15T00:48:20;46.63;;;24.58;;
37905;SDS011;23739;51.448;6.674;2024-01-15T00:50:46;40.38;;;21.75;;
37905;SDS011;23739;51.448;6.674;2024-01-15T00:53:12;47.65;;;22.50;;
37905;SDS011;23739;51.448;6.674;2024-01-15T00:55:38;47.15;;;22.55;;
37905;SDS011;23739;51.448;6.674;2024-01-15T00:58:04;39.20;;;20.33;;
37905;SDS011;23739;51.448;6.674;2024-01-15T01:00:30;46.75;;;23.38;;
37905;SDS011;23739;51.448;6.674;2024-01-15T01:02:56;38.95;;;20.50;;
37905;SDS011;23739;51.448;6.674;2024-01-15T01:05:22;49.03;;;24.33;;
37905;SDS011;23739;51.448;6.674;2024-01-15T01:07:48;45.72;;;22.42;;
37905;SDS011;23739;51.448;6.674;2024-01-15T01:10:14;42.92;;;22.48;;
37905;SDS011;23739;51.448;6.674;2024-01-15T01:12:40;45.17;;;21.98;;
37905;SDS011;23739;51.448;6.674;2024-01-15T01:15:06;42.47;;;22.65;;
37905;SDS011;23739;51.448;6.674;2024-01-15T01:17:33;42.30;;;22.48;;
37905;SDS011;23739;51.448;6.674;2024-01-15T01:19:59;43.25;;;22.45;;
37905;SDS011;23739;51.448;6.674;2024-01-15T01:22:25;41.45;;;22.88;;
37905;SDS011;23739;51.448;6.674;2024-01-15T01:24:51;43.35;;;23.88;;
37905;SDS011;23739;51.448;6.674;2024-01-15T01:27:16;44.58;;;25.13;;
37905;SDS011;23739;51.448;6.674;2024-01-15T01:29:43;41.75;;;20.65;;
37905;SDS011;23739;51.448;6.674;2024-01-15T01:32:09;39.35;;;20.70;;
37905;SDS011;23739;51.448;6.674;2024-01-15T01:34:39;39.47;;;23.60;;
37905;SDS011;23739;51.448;6.674;2024-01-15T01:37:09;42.53;;;21.58;;
37905;SDS011;23739;51.448;6.674;2024-01-15T01:39:38;43.10;;;22.33;;
37905;SDS011;23739;51.448;6.674;2024-01-15T01:42:04;41.30;;;20.88;;
37905;SDS011;23739;51.448;6.674;2024-01-15T01:44:30;45.60;;;22.77;;
37905;SDS011;23739;51.448;6.674;2024-01-15T01:46:57;44.50;;;21.40;;
37905;SDS011;23739;51.448;6.674;2024-01-15T01:49:23;38.80;;;20.77;;
37905;SDS011;23739;51.448;6.674;2024-01-15T01:51:49;42.97;;;22.58;;
37905;SDS011;23739;51.448;6.674;2024-01-15T01:54:15;42.00;;;21.23;;
37905;SDS011;23739;51.448;6.674;2024-01-15T01:56:41;40.20;;;20.00;;
37905;SDS011;23739;51.448;6.674;2024-01-15T01:59:09;37.10;;;21.20;;
37905;SDS011;23739;51.448;6.674;2024-01-15T02:01:35;36.03;;;19.35;;
37905;SDS011;23739;51.448;6.674;2024-01-15T02:04:02;40.92;;;19.58;;
37905;SDS011;23739;51.448;6.674;2024-01-15T02:06:29;41.97;;;20.73;;
37905;SDS011;23739;51.448;6.674;2024-01-15T02:08:55;35.00;;;18.77;;
37905;SDS011;23739;51.448;6.674;2024-01-15T02:11:21;31.38;;;18.38;;
37905;SDS011;23739;51.448;6.674;2024-01-15T02:13:47;39.67;;;17.45;;
37905;SDS011;23739;51.448;6.674;2024-01-15T02:16:14;46.15;;;17.35;;
37905;SDS011;23739;51.448;6.674;2024-01-15T02:18:40;31.52;;;16.40;;
37905;SDS011;23739;51.448;6.674;2024-01-15T02:21:06;33.63;;;15.50;;
37905;SDS011;23739;51.448;6.674;2024-01-15T02:23:33;34.38;;;17.42;;
37905;SDS011;23739;51.448;6.674;2024-01-15T02:25:59;38.65;;;18.83;;
37905;SDS011;23739;51.448;6.674;2024-01-15T02:28:25;32.80;;;16.08;;
37905;SDS011;23739;51.448;6.674;2024-01-15T02:30:51;31.25;;;18.15;;
37905;SDS011;23739;51.448;6.674;2024-01-15T02:33:17;31.23;;;16.85;;
37905;SDS011;23739;51.448;6.674;2024-01-15T02:35:43;31.55;;;16.27;;
37905;SDS011;23739;51.448;6.674;2024-01-15T02:38:11;33.72;;;16.60;;
37905;SDS011;23739;51.448;6.674;2024-01-15T02:40:38;37.95;;;16.10;;
37905;SDS011;23739;51.448;6.674;2024-01-15T02:43:05;27.88;;;15.13;;
37905;SDS011;23739;51.448;6.674;2024-01-15T02:45:31;28.67;;;15.32;;
37905;SDS011;23739;51.448;6.674;2024-01-15T02:47:57;33.90;;;15.23;;
37905;SDS011;23739;51.448;6.674;2024-01-15T02:50:23;28.05;;;14.80;;
37905;SDS011;23739;51.448;6.674;2024-01-15T02:52:49;25.08;;;13.40;;
37905;SDS011;23739;51.448;6.674;2024-01-15T02:55:15;21.08;;;13.55;;
37905;SDS011;23739;51.448;6.674;2024-01-15T02:57:41;21.02;;;11.27;;
37905;SDS011;23739;51.448;6.674;2024-01-15T03:00:07;24.10;;;13.05;;
37905;SDS011;23739;51.448;6.674;2024-01-15T03:02:36;25.80;;;13.55;;
37905;SDS011;23739;51.448;6.674;2024-01-15T03:05:04;19.75;;;12.23;;
37905;SDS011;23739;51.448;6.674;2024-01-15T03:07:30;24.27;;;12.93;;
37905;SDS011;23739;51.448;6.674;2024-01-15T03:09:56;21.17;;;11.63;;
37905;SDS011;23739;51.448;6.674;2024-01-15T03:12:22;21.30;;;11.07;;
37905;SDS011;23739;51.448;6.674;2024-01-15T03:14:48;24.00;;;11.45;;
37905;SDS011;23739;51.448;6.674;2024-01-15T03:17:14;21.27;;;12.15;;
37905;SDS011;23739;51.448;6.674;2024-01-15T03:19:40;18.35;;;11.02;;
37905;SDS011;23739;51.448;6.674;2024-01-15T03:22:06;16.42;;;9.35;;
37905;SDS011;23739;51.448;6.674;2024-01-15T03:24:33;20.35;;;11.40;;
37905;SDS011;23739;51.448;6.674;2024-01-15T03:27:00;21.20;;;11.07;;
37905;SDS011;23739;51.448;6.674;2024-01-15T03:29:26;22.55;;;10.18;;
37905;SDS011;23739;51.448;6.674;2024-01-15T03:31:52;16.70;;;10.23;;
37905;SDS011;23739;51.448;6.674;2024-01-15T03:34:18;17.35;;;10.25;;
37905;SDS011;23739;51.448;6.674;2024-01-15T03:36:44;19.58;;;11.70;;
37905;SDS011;23739;51.448;6.674;2024-01-15T03:39:10;19.05;;;9.80;;
37905;SDS011;23739;51.448;6.674;2024-01-15T03:41:37;22.20;;;12.02;;
37905;SDS011;23739;51.448;6.674;2024-01-15T03:44:03;19.98;;;10.65;;
37905;SDS011;23739;51.448;6.674;2024-01-15T03:46:29;22.45;;;11.45;;
37905;SDS011;23739;51.448;6.674;2024-01-15T03:48:55;24.48;;;12.20;;
37905;SDS011;23739;51.448;6.674;2024-01-15T03:51:21;21.45;;;11.77;;
37905;SDS011;23739;51.448;6.674;2024-01-15T03:53:47;19.95;;;12.38;;
37905;SDS011;23739;51.448;6.674;2024-01-15T03:56:13;24.75;;;13.23;;
37905;SDS011;23739;51.448;6.674;2024-01-15T03:58:39;37.70;;;15.23;;
37905;SDS011;23739;51.448;6.674;2024-01-15T04:01:11;24.08;;;12.85;;
37905;SDS011;23739;51.448;6.674;2024-01-15T04:03:37;25.90;;;14.40;;
37905;SDS011;23739;51.448;6.674;2024-01-15T04:06:04;27.15;;;15.18;;
37905;SDS011;23739;51.448;6.674;2024-01-15T04:08:30;26.08;;;15.88;;
37905;SDS011;23739;51.448;6.674;2024-01-15T04:10:56;21.02;;;12.68;;
37905;SDS011;23739;51.448;6.674;2024-01-15T04:13:22;22.02;;;13.82;;
37905;SDS011;23739;51.448;6.674;2024-01-15T04:15:48;22.73;;;13.85;;
37905;SDS011;23739;51.448;6.674;2024-01-15T04:18:15;23.80;;;14.00;;
37905;SDS011;23739;51.448;6.674;2024-01-15T04:20:42;28.10;;;14.73;;
37905;SDS011;23739;51.448;6.674;2024-01-15T04:23:08;28.00;;;14.23;;
37905;SDS011;23739;51.448;6.674;2024-01-15T04:25:34;25.80;;;13.77;;
37905;SDS011;23739;51.448;6.674;2024-01-15T04:28:01;24.55;;;14.52;;
37905;SDS011;23739;51.448;6.674;2024-01-15T04:30:27;20.60;;;12.32;;
37905;SDS011;23739;51.448;6.674;2024-01-15T04:32:52;22.20;;;12.55;;
37905;SDS011;23739;51.448;6.674;2024-01-15T04:35:18;18.90;;;12.23;;
37905;SDS011;23739;51.448;6.674;2024-01-15T04:37:45;22.98;;;12.38;;
37905;SDS011;23739;51.448;6.674;2024-01-15T04:40:11;18.75;;;11.48;;
37905;SDS011;23739;51.448;6.674;2024-01-15T04:42:37;25.20;;;13.00;;
37905;SDS011;23739;51.448;6.674;2024-01-15T04:45:03;23.48;;;11.57;;
37905;SDS011;23739;51.448;6.674;2024-01-15T04:47:29;19.27;;;10.68;;
37905;SDS011;23739;51.448;6.674;2024-01-15T04:49:55;16.17;;;10.25;;
37905;SDS011;23739;51.448;6.674;2024-01-15T04:52:21;20.10;;;11.90;;
37905;SDS011;23739;51.448;6.674;2024-01-15T04:54:48;22.63;;;12.30;;
37905;SDS011;23739;51.448;6.674;2024-01-15T04:57:15;21.83;;;12.25;;
37905;SDS011;23739;51.448;6.674;2024-01-15T04:59:41;22.27;;;12.45;;
37905;SDS011;23739;51.448;6.674;2024-01-15T05:02:07;27.00;;;10.63;;
37905;SDS011;23739;51.448;6.674;2024-01-15T05:04:33;22.55;;;12.93;;
37905;SDS011;23739;51.448;6.674;2024-01-15T05:06:59;20.77;;;11.25;;
37905;SDS011;23739;51.448;6.674;2024-01-15T05:09:25;26.67;;;12.23;;
37905;SDS011;23739;51.448;6.674;2024-01-15T05:11:51;22.90;;;12.55;;
37905;SDS011;23739;51.448;6.674;2024-01-15T05:14:17;20.55;;;11.48;;
37905;SDS011;23739;51.448;6.674;2024-01-15T05:16:46;16.77;;;12.32;;
37905;SDS011;23739;51.448;6.674;2024-01-15T05:19:13;21.05;;;14.13;;
37905;SDS011;23739;51.448;6.674;2024-01-15T05:21:39;21.83;;;11.63;;
37905;SDS011;23739;51.448;6.674;2024-01-15T05:24:05;21.80;;;10.43;;
37905;SDS011;23739;51.448;6.674;2024-01-15T05:26:31;22.80;;;11.93;;
37905;SDS011;23739;51.448;6.674;2024-01-15T05:28:57;16.33;;;11.30;;
37905;SDS011;23739;51.448;6.674;2024-01-15T05:31:23;23.17;;;11.40;;
37905;SDS011;23739;51.448;6.674;2024-01-15T05:33:49;19.58;;;11.82;;
37905;SDS011;23739;51.448;6.674;2024-01-15T05:36:15;19.67;;;11.63;;
37905;SDS011;23739;51.448;6.674;2024-01-15T05:38:41;18.45;;;10.60;;
37905;SDS011;23739;51.448;6.674;2024-01-15T05:41:07;19.58;;;11.40;;
37905;SDS011;23739;51.448;6.674;2024-01-15T05:43:33;17.00;;;10.82;;
37905;SDS011;23739;51.448;6.674;2024-01-15T05:45:59;18.98;;;9.48;;
37905;SDS011;23739;51.448;6.674;2024-01-15T05:48:25;15.10;;;9.15;;
37905;SDS011;23739;51.448;6.674;2024-01-15T05:50:51;16.92;;;10.02;;
37905;SDS011;23739;51.448;6.674;2024-01-15T05:53:17;15.38;;;9.43;;
37905;SDS011;23739;51.448;6.674;2024-01-15T05:55:43;19.67;;;9.90;;
37905;SDS011;23739;51.448;6.674;2024-01-15T05:58:09;17.00;;;9.95;;
37905;SDS011;23739;51.448;6.674;2024-01-15T06:00:35;17.60;;;8.75;;
37905;SDS011;23739;51.448;6.674;2024-01-15T06:03:03;12.15;;;7.45;;
37905;SDS011;23739;51.448;6.674;2024-01-15T06:05:29;14.57;;;7.22;;
37905;SDS011;23739;51.448;6.674;2024-01-15T06:07:55;15.82;;;8.55;;
37905;SDS011;23739;51.448;6.674;2024-01-15T06:10:22;13.57;;;7.40;;
37905;SDS011;23739;51.448;6.674;2024-01-15T06:12:48;16.85;;;7.18;;
37905;SDS011;23739;51.448;6.674;2024-01-15T06:15:14;10.93;;;6.78;;
37905;SDS011;23739;51.448;6.674;2024-01-15T06:17:40;12.63;;;6.53;;
37905;SDS011;23739;51.448;6.674;2024-01-15T06:20:06;9.27;;;5.85;;
37905;SDS011;23739;51.448;6.674;2024-01-15T06:22:34;11.00;;;5.82;;
37905;SDS011;23739;51.448;6.674;2024-01-15T06:25:02;19.58;;;5.20;;
37905;SDS011;23739;51.448;6.674;2024-01-15T06:27:28;7.72;;;3.50;;
37905;SDS011;23739;51.448;6.674;2024-01-15T06:29:54;5.97;;;3.72;;
37905;SDS011;23739;51.448;6.674;2024-01-15T06:32:21;10.38;;;4.00;;
37905;SDS011;23739;51.448;6.674;2024-01-15T06:34:47;8.05;;;3.55;;
37905;SDS011;23739;51.448;6.674;2024-01-15T06:37:13;8.00;;;3.50;;
37905;SDS011;23739;51.448;6.674;2024-01-15T06:39:39;7.10;;;2.85;;
37905;SDS011;23739;51.448;6.674;2024-01-15T06:42:06;6.63;;;2.60;;
37905;SDS011;23739;51.448;6.674;2024-01-15T06:44:32;5.35;;;2.65;;
37905;SDS011;23739;51.448;6.674;2024-01-15T06:46:58;5.78;;;2.85;;
37905;SDS011;23739;51.448;6.674;2024-01-15T06:49:27;9.88;;;3.55;;
37905;SDS011;23739;51.448;6.674;2024-01-15T06:51:54;11.80;;;3.40;;
37905;SDS011;23739;51.448;6.674;2024-01-15T06:54:20;5.75;;;3.22;;
37905;SDS011;23739;51.448;6.674;2024-01-15T06:56:47;5.10;;;2.58;;
37905;SDS011;23739;51.448;6.674;2024-01-15T06:59:13;5.32;;;3.20;;
37905;SDS011;23739;51.448;6.674;2024-01-15T07:01:39;6.63;;;3.08;;
37905;SDS011;23739;51.448;6.674;2024-01-15T07:04:05;5.25;;;2.78;;
37905;SDS011;23739;51.448;6.674;2024-01-15T07:06:31;7.03;;;2.38;;
37905;SDS011;23739;51.448;6.674;2024-01-15T07:08:57;10.70;;;3.78;;
37905;SDS011;23739;51.448;6.674;2024-01-15T07:11:23;7.35;;;2.30;;
37905;SDS011;23739;51.448;6.674;2024-01-15T07:13:49;9.13;;;4.20;;
37905;SDS011;23739;51.448;6.674;2024-01-15T07:16:15;4.65;;;3.78;;
37905;SDS011;23739;51.448;6.674;2024-01-15T07:18:41;6.00;;;2.80;;
37905;SDS011;23739;51.448;6.674;2024-01-15T07:21:07;4.65;;;3.20;;
37905;SDS011;23739;51.448;6.674;2024-01-15T07:23:34;8.88;;;3.70;;
37905;SDS011;23739;51.448;6.674;2024-01-15T07:26:00;9.80;;;3.53;;
37905;SDS011;23739;51.448;6.674;2024-01-15T07:28:28;10.77;;;4.25;;
37905;SDS011;23739;51.448;6.674;2024-01-15T07:30:55;8.32;;;4.18;;
37905;SDS011;23739;51.448;6.674;2024-01-15T07:33:21;8.85;;;4.93;;
37905;SDS011;23739;51.448;6.674;2024-01-15T07:35:47;10.30;;;6.03;;
37905;SDS011;23739;51.448;6.674;2024-01-15T07:38:13;12.48;;;7.35;;
37905;SDS011;23739;51.448;6.674;2024-01-15T07:40:39;14.93;;;9.70;;
37905;SDS011;23739;51.448;6.674;2024-01-15T07:43:05;20.08;;;10.68;;
37905;SDS011;23739;51.448;6.674;2024-01-15T07:45:31;19.88;;;10.07;;
37905;SDS011;23739;51.448;6.674;2024-01-15T07:47:57;22.48;;;12.82;;
37905;SDS011;23739;51.448;6.674;2024-01-15T07:50:23;20.25;;;12.73;;
37905;SDS011;23739;51.448;6.674;2024-01-15T07:52:49;25.27;;;14.05;;
37905;SDS011;23739;51.448;6.674;2024-01-15T07:55:15;29.23;;;14.95;;
37905;SDS011;23739;51.448;6.674;2024-01-15T07:57:42;24.92;;;13.95;;
37905;SDS011;23739;51.448;6.674;2024-01-15T08:00:08;20.25;;;14.10;;
37905;SDS011;23739;51.448;6.674;2024-01-15T08:02:34;25.48;;;14.70;;
37905;SDS011;23739;51.448;6.674;2024-01-15T08:05:00;21.42;;;14.85;;
37905;SDS011;23739;51.448;6.674;2024-01-15T08:07:26;23.15;;;14.43;;
37905;SDS011;23739;51.448;6.674;2024-01-15T08:09:52;25.92;;;14.80;;
37905;SDS011;23739;51.448;6.674;2024-01-15T08:12:18;24.67;;;15.27;;
37905;SDS011;23739;51.448;6.674;2024-01-15T08:14:44;24.25;;;15.00;;
37905;SDS011;23739;51.448;6.674;2024-01-15T08:17:10;27.00;;;15.88;;
37905;SDS011;23739;51.448;6.674;2024-01-15T08:19:36;24.95;;;15.10;;
37905;SDS011;23739;51.448;6.674;2024-01-15T08:22:02;25.00;;;14.07;;
37905;SDS011;23739;51.448;6.674;2024-01-15T08:24:28;26.70;;;15.18;;
37905;SDS011;23739;51.448;6.674;2024-01-15T08:26:54;22.95;;;14.35;;
37905;SDS011;23739;51.448;6.674;2024-01-15T08:29:21;26.55;;;15.50;;
37905;SDS011;23739;51.448;6.674;2024-01-15T08:31:46;21.67;;;14.77;;
37905;SDS011;23739;51.448;6.674;2024-01-15T08:34:13;20.92;;;13.90;;
37905;SDS011;23739;51.448;6.674;2024-01-15T08:36:38;20.85;;;13.02;;
37905;SDS011;23739;51.448;6.674;2024-01-15T08:39:05;24.27;;;14.82;;
37905;SDS011;23739;51.448;6.674;2024-01-15T08:41:32;24.50;;;15.60;;
37905;SDS011;23739;51.448;6.674;2024-01-15T08:43:58;17.52;;;12.55;;
37905;SDS011;23739;51.448;6.674;2024-01-15T08:46:24;17.52;;;11.82;;
37905;SDS011;23739;51.448;6.674;2024-01-15T08:48:49;20.17;;;13.50;;
37905;SDS011;23739;51.448;6.674;2024-01-15T08:51:16;18.77;;;12.77;;
37905;SDS011;23739;51.448;6.674;2024-01-15T08:53:43;16.50;;;11.98;;
37905;SDS011;23739;51.448;6.674;2024-01-15T08:56:09;22.05;;;12.57;;
37905;SDS011;23739;51.448;6.674;2024-01-15T08:58:35;17.25;;;10.35;;
37905;SDS011;23739;51.448;6.674;2024-01-15T09:01:00;18.92;;;12.13;;
37905;SDS011;23739;51.448;6.674;2024-01-15T09:03:26;16.65;;;10.90;;
37905;SDS011;23739;51.448;6.674;2024-01-15T09:05:52;17.95;;;12.40;;
37905;SDS011;23739;51.448;6.674;2024-01-15T09:08:19;16.67;;;11.73;;
37905;SDS011;23739;51.448;6.674;2024-01-15T09:10:45;13.10;;;9.60;;
37905;SDS011;23739;51.448;6.674;2024-01-15T09:13:11;13.75;;;9.60;;
37905;SDS011;23739;51.448;6.674;2024-01-15T09:15:36;13.30;;;9.40;;
37905;SDS011;23739;51.448;6.674;2024-01-15T09:18:02;15.93;;;10.25;;
37905;SDS011;23739;51.448;6.674;2024-01-15T09:20:28;12.65;;;7.95;;
37905;SDS011;23739;51.448;6.674;2024-01-15T09:22:54;10.82;;;7.80;;
37905;SDS011;23739;51.448;6.674;2024-01-15T09:25:19;13.05;;;7.93;;
37905;SDS011;23739;51.448;6.674;2024-01-15T09:27:45;9.77;;;7.05;;
37905;SDS011;23739;51.448;6.674;2024-01-15T09:30:11;10.38;;;6.72;;
37905;SDS011;23739;51.448;6.674;2024-01-15T09:32:37;10.45;;;7.13;;
37905;SDS011;23739;51.448;6.674;2024-01-15T09:35:02;10.18;;;7.60;;
37905;SDS011;23739;51.448;6.674;2024-01-15T09:37:28;9.40;;;6.13;;
37905;SDS011;23739;51.448;6.674;2024-01-15T09:39:54;9.88;;;6.93;;
37905;SDS011;23739;51.448;6.674;2024-01-15T09:42:20;7.28;;;5.57;;
37905;SDS011;23739;51.448;6.674;2024-01-15T09:44:49;5.82;;;4.30;;
37905;SDS011;23739;51.448;6.674;2024-01-15T09:47:16;8.27;;;6.20;;
37905;SDS011;23739;51.448;6.674;2024-01-15T09:49:44;8.52;;;5.90;;
37905;SDS011;23739;51.448;6.674;2024-01-15T09:52:10;7.93;;;5.93;;
37905;SDS011;23739;51.448;6.674;2024-01-15T09:54:36;7.45;;;5.43;;
37905;SDS011;23739;51.448;6.674;2024-01-15T09:57:03;9.95;;;6.05;;
37905;SDS011;23739;51.448;6.674;2024-01-15T09:59:29;6.32;;;4.57;;
37905;SDS011;23739;51.448;6.674;2024-01-15T10:01:55;9.82;;;5.07;;
37905;SDS011;23739;51.448;6.674;2024-01-15T10:04:23;10.40;;;5.75;;
37905;SDS011;23739;51.448;6.674;2024-01-15T10:06:50;7.03;;;5.47;;
37905;SDS011;23739;51.448;6.674;2024-01-15T10:09:17;6.95;;;4.82;;
37905;SDS011;23739;51.448;6.674;2024-01-15T10:11:43;8.07;;;5.20;;
37905;SDS011;23739;51.448;6.674;2024-01-15T10:14:12;7.55;;;5.22;;
37905;SDS011;23739;51.448;6.674;2024-01-15T10:16:38;6.68;;;4.78;;
37905;SDS011;23739;51.448;6.674;2024-01-15T10:19:05;6.35;;;4.35;;
37905;SDS011;23739;51.448;6.674;2024-01-15T10:21:32;8.20;;;4.53;;
37905;SDS011;23739;51.448;6.674;2024-01-15T10:24:00;6.13;;;4.13;;
37905;SDS011;23739;51.448;6.674;2024-01-15T10:26:26;7.38;;;4.30;;
37905;SDS011;23739;51.448;6.674;2024-01-15T10:28:52;8.27;;;4.93;;
37905;SDS011;23739;51.448;6.674;2024-01-15T10:31:18;6.13;;;4.25;;
37905;SDS011;23739;51.448;6.674;2024-01-15T10:33:44;5.63;;;4.20;;
37905;SDS011;23739;51.448;6.674;2024-01-15T10:36:10;5.05;;;4.00;;
37905;SDS011;23739;51.448;6.674;2024-01-15T10:38:37;6.15;;;4.25;;
37905;SDS011;23739;51.448;6.674;2024-01-15T10:41:03;5.90;;;4.05;;
37905;SDS011;23739;51.448;6.674;2024-01-15T10:43:29;5.05;;;4.00;;
37905;SDS011;23739;51.448;6.674;2024-01-15T10:45:55;6.55;;;3.90;;
37905;SDS011;23739;51.448;6.674;2024-01-15T10:48:21;5.28;;;4.30;;
37905;SDS011;23739;51.448;6.674;2024-01-15T10:50:48;8.80;;;5.28;;
37905;SDS011;23739;51.448;6.674;2024-01-15T10:53:15;9.98;;;4.60;;
37905;SDS011;23739;51.448;6.674;2024-01-15T10:55:42;6.97;;;5.63;;
37905;SDS011;23739;51.448;6.674;2024-01-15T10:58:08;6.28;;;5.07;;
37905;SDS011;23739;51.448;6.674;2024-01-15T11:00:35;7.50;;;4.55;;
37905;SDS011;23739;51.448;6.674;2024-01-15T11:03:03;9.90;;;4.22;;
37905;SDS011;23739;51.448;6.674;2024-01-15T11:05:33;8.52;;;5.78;;
37905;SDS011;23739;51.448;6.674;2024-01-15T11:07:59;8.00;;;5.57;;
37905;SDS011;23739;51.448;6.674;2024-01-15T11:15:57;9.02;;;5.82;;
37905;SDS011;23739;51.448;6.674;2024-01-15T11:23:57;7.78;;;5.88;;
37905;SDS011;23739;51.448;6.674;2024-01-15T11:33:54;6.32;;;3.55;;
37905;SDS011;23739;51.448;6.674;2024-01-15T11:36:21;8.48;;;3.75;;
37905;SDS011;23739;51.448;6.674;2024-01-15T11:38:47;8.73;;;3.75;;
37905;SDS011;23739;51.448;6.674;2024-01-15T11:41:14;7.85;;;4.20;;
37905;SDS011;23739;51.448;6.674;2024-01-15T11:43:43;8.50;;;3.63;;
37905;SDS011;23739;51.448;6.674;2024-01-15T11:46:10;6.30;;;3.33;;
37905;SDS011;23739;51.448;6.674;2024-01-15T11:48:42;11.38;;;3.58;;
37905;SDS011;23739;51.448;6.674;2024-01-15T11:51:12;7.28;;;3.88;;
37905;SDS011;23739;51.448;6.674;2024-01-15T11:53:45;8.00;;;3.03;;
37905;SDS011;23739;51.448;6.674;2024-01-15T11:56:17;4.93;;;3.25;;
37905;SDS011;23739;51.448;6.674;2024-01-15T11:58:43;6.78;;;2.95;;
37905;SDS011;23739;51.448;6.674;2024-01-15T12:01:12;3.10;;;2.30;;
37905;SDS011;23739;51.448;6.674;2024-01-15T12:03:38;7.35;;;3.47;;
37905;SDS011;23739;51.448;6.674;2024-01-15T12:06:05;4.45;;;2.58;;
37905;SDS011;23739;51.448;6.674;2024-01-15T12:08:32;5.50;;;2.20;;
37905;SDS011;23739;51.448;6.674;2024-01-15T12:10:58;4.82;;;2.65;;
37905;SDS011;23739;51.448;6.674;2024-01-15T12:13:24;6.97;;;2.47;;
37905;SDS011;23739;51.448;6.674;2024-01-15T12:15:50;8.07;;;2.85;;
37905;SDS011;23739;51.448;6.674;2024-01-15T12:18:17;13.13;;;3.50;;
37905;SDS011;23739;51.448;6.674;2024-01-15T12:20:44;5.72;;;2.78;;
37905;SDS011;23739;51.448;6.674;2024-01-15T12:23:13;9.00;;;3.03;;
37905;SDS011;23739;51.448;6.674;2024-01-15T12:25:40;8.50;;;2.75;;
37905;SDS011;23739;51.448;6.674;2024-01-15T12:28:06;6.90;;;3.03;;
37905;SDS011;23739;51.448;6.674;2024-01-15T12:30:33;12.23;;;2.80;;
37905;SDS011;23739;51.448;6.674;2024-01-15T12:33:03;4.03;;;2.60;;
37905;SDS011;23739;51.448;6.674;2024-01-15T12:35:29;5.93;;;2.60;;
37905;SDS011;23739;51.448;6.674;2024-01-15T12:37:55;12.80;;;2.97;;
37905;SDS011;23739;51.448;6.674;2024-01-15T12:40:22;4.28;;;3.53;;
37905;SDS011;23739;51.448;6.674;2024-01-15T12:42:49;7.35;;;3.75;;
37905;SDS011;23739;51.448;6.674;2024-01-15T12:45:15;7.63;;;3.22;;
37905;SDS011;23739;51.448;6.674;2024-01-15T12:47:41;10.25;;;2.83;;
37905;SDS011;23739;51.448;6.674;2024-01-15T12:50:11;4.55;;;3.13;;
37905;SDS011;23739;51.448;6.674;2024-01-15T12:52:37;8.15;;;3.35;;
37905;SDS011;23739;51.448;6.674;2024-01-15T12:55:04;7.85;;;3.50;;
37905;SDS011;23739;51.448;6.674;2024-01-15T12:57:31;6.15;;;3.33;;
37905;SDS011;23739;51.448;6.674;2024-01-15T12:59:57;6.25;;;3.08;;
37905;SDS011;23739;51.448;6.674;2024-01-15T13:02:23;5.13;;;2.83;;
37905;SDS011;23739;51.448;6.674;2024-01-15T13:04:49;4.60;;;2.78;;
37905;SDS011;23739;51.448;6.674;2024-01-15T13:07:16;5.15;;;2.95;;
37905;SDS011;23739;51.448;6.674;2024-01-15T13:09:42;4.70;;;2.88;;
37905;SDS011;23739;51.448;6.674;2024-01-15T13:12:08;3.30;;;2.63;;
37905;SDS011;23739;51.448;6.674;2024-01-15T13:14:35;3.75;;;2.92;;
37905;SDS011;23739;51.448;6.674;2024-01-15T13:17:01;9.25;;;3.10;;
37905;SDS011;23739;51.448;6.674;2024-01-15T13:19:28;6.00;;;4.05;;
37905;SDS011;23739;51.448;6.674;2024-01-15T13:21:54;6.15;;;3.63;;
37905;SDS011;23739;51.448;6.674;2024-01-15T13:24:21;4.80;;;3.50;;
37905;SDS011;23739;51.448;6.674;2024-01-15T13:26:47;8.85;;;3.47;;
37905;SDS011;23739;51.448;6.674;2024-01-15T13:29:14;5.43;;;3.90;;
37905;SDS011;23739;51.448;6.674;2024-01-15T13:31:40;9.32;;;3.17;;
37905;SDS011;23739;51.448;6.674;2024-01-15T13:34:06;5.53;;;3.67;;
37905;SDS011;23739;51.448;6.674;2024-01-15T13:36:34;4.03;;;2.95;;
37905;SDS011;23739;51.448;6.674;2024-01-15T13:39:00;4.40;;;2.92;;
37905;SDS011;23739;51.448;6.674;2024-01-15T13:41:26;5.88;;;2.83;;
37905;SDS011;23739;51.448;6.674;2024-01-15T13:43:53;3.30;;;1.80;;
37905;SDS011;23739;51.448;6.674;2024-01-15T13:46:19;5.82;;;2.83;;
37905;SDS011;23739;51.448;6.674;2024-01-15T13:48:47;4.43;;;2.20;;
37905;SDS011;23739;51.448;6.674;2024-01-15T13:51:13;3.03;;;2.33;;
37905;SDS011;23739;51.448;6.674;2024-01-15T13:53:39;4.93;;;1.67;;
37905;SDS011;23739;51.448;6.674;2024-01-15T13:56:05;2.45;;;2.03;;
37905;SDS011;23739;51.448;6.674;2024-01-15T13:58:32;3.60;;;1.77;;
37905;SDS011;23739;51.448;6.674;2024-01-15T14:00:58;3.97;;;2.13;;
37905;SDS011;23739;51.448;6.674;2024-01-15T14:03:25;2.72;;;1.42;;
37905;SDS011;23739;51.448;6.674;2024-01-15T14:05:51;1.80;;;1.55;;
37905;SDS011;23739;51.448;6.674;2024-01-15T14:08:17;1.75;;;1.58;;
37905;SDS011;23739;51.448;6.674;2024-01-15T14:10:43;2.17;;;1.45;;
37905;SDS011;23739;51.448;6.674;2024-01-15T14:13:10;2.30;;;1.90;;
37905;SDS011;23739;51.448;6.674;2024-01-15T14:15:36;4.72;;;2.05;;
37905;SDS011;23739;51.448;6.674;2024-01-15T14:18:02;4.72;;;1.33;;
37905;SDS011;23739;51.448;6.674;2024-01-15T14:20:28;3.00;;;1.83;;
37905;SDS011;23739;51.448;6.674;2024-01-15T14:22:54;3.20;;;1.67;;
37905;SDS011;23739;51.448;6.674;2024-01-15T14:25:20;1.60;;;1.50;;
37905;SDS011;23739;51.448;6.674;2024-01-15T14:27:47;6.50;;;2.38;;
37905;SDS011;23739;51.448;6.674;2024-01-15T14:30:13;1.98;;;1.33;;
37905;SDS011;23739;51.448;6.674;2024-01-15T14:32:40;5.38;;;1.73;;
37905;SDS011;23739;51.448;6.674;2024-01-15T14:35:07;1.75;;;1.33;;
37905;SDS011;23739;51.448;6.674;2024-01-15T14:37:38;5.50;;;1.50;;
37905;SDS011;23739;51.448;6.674;2024-01-15T14:40:05;6.30;;;1.88;;
37905;SDS011;23739;51.448;6.674;2024-01-15T14:42:33;3.35;;;2.00;;
37905;SDS011;23739;51.448;6.674;2024-01-15T14:44:59;2.30;;;1.30;;
37905;SDS011;23739;51.448;6.674;2024-01-15T14:47:26;13.45;;;2.90;;